x

Ilm3 - 27 Miles Se Of Wrightsville Beach, Nc (41037) Weather Station

10:00 - Sat 20th Dec 2014 All times are EST. -5 hours from GMT.

  • Wind
    18mph, 22mph gusts
  • Sea Temp 62°f
  • Aire Temp 50°f
  • Sea Pressure 1024.1mb
  • Ilm3 - 27 Miles Se Of Wrightsville Beach, Nc
  • Ilm3 - 27 Miles Se Of Wrightsville Beach, Nc

More Historic Weather Station data

Upgrade to MSW Pro to gain access to the past 30 days of data for over 8000 Wavebouys and Weather Stations around the globe.

Join Pro

Comparision Forecast

View Surf forecast
   
sáb 12/20 10:00 18 22 mph 1024.1mb 62f 50f
9:00 16 20 mph 1024.2mb 62f 50f
8:00 18 20 mph 1023.5mb 63f 50f
7:00 13 16 mph 1023.8mb 64f 50f
6:00 13 18 mph 1023.1mb 64f 51f
5:00 11 13 mph 1023.6mb 65f 51f
4:00 11 13 mph 1023.1mb 65f 51f
3:00 11 13 mph 1023.4mb 65f 51f
2:00 11 13 mph 1023.4mb 66f 51f
1:00 11 13 mph 1023.4mb 65f 50f
12:00 13 16 mph 1023mb 65f 51f
vie 12/19 11:00 13 16 mph 1023mb 66f 51f
10:00 11 13 mph 1022.6mb 66f 51f
9:00 11 13 mph 1022.9mb 66f 52f
8:00 9 11 mph 1022.4mb 66f 52f
7:00 9 11 mph 1022.2mb 66f 51f
6:00 9
mph
1022mb 66f 51f
5:00 7 9 mph 1021.2mb 65f 51f
4:00 4 7 mph 1021.1mb 65f 50f
3:00 4 7 mph 1020.9mb 65f 49f
2:00 7 9 mph 1020.6mb 64f 49f
1:00 9 11 mph 1021.1mb 64f 49f
12:00 9 11 mph 1021.5mb 64f 49f
11:00 9 13 mph 1022.3mb 64f 50f
10:00 13 18 mph 1022.6mb 64f 51f
9:00 11 13 mph 1022mb 65f 50f
8:00 11 16 mph 1021mb 65f 50f
7:00 11 16 mph 1020.5mb 66f 50f
6:00 7 9 mph 1020mb 66f 51f
5:00 4 7 mph 1019.3mb 66f 51f
4:00 4
mph
1019.5mb 66f 51f
3:00 4
mph
1019.4mb 65f 51f
2:00 2
mph
1019.7mb 65f 51f
1:00 7 9 mph 1019.9mb 65f 51f
12:00 7
mph
1020.3mb 65f 51f
jue 12/18 11:00 4 7 mph 1020.7mb 65f 51f
10:00 4 9 mph 1020mb 65f 51f
9:00 2 4 mph 1020.1mb 65f 51f
8:00 4 7 mph 1019.9mb 65f 51f
7:00 4 7 mph 1020mb 65f 51f
6:00 7 9 mph 1019.7mb 65f 51f
5:00 4 7 mph 1019.8mb 64f 50f
4:00 7 9 mph 1019.7mb 64f 49f
3:00 9 11 mph 1020.1mb 63f 49f
2:00 11 13 mph 1020.1mb 63f 50f
1:00 9 11 mph 1020.6mb 62f 49f
12:00 13 16 mph 1021.5mb 62f 49f
11:00 13 18 mph 1022.4mb 62f 49f
10:00 13 16 mph 1022.4mb 62f 50f
9:00 18 22 mph 1021.7mb 62f 50f
8:00 20 25 mph 1021.6mb 62f 49f
7:00 18 20 mph 1020.9mb 63f 51f
6:00 18 22 mph 1019.8mb 63f 51f
5:00 11 13 mph 1019.5mb 63f 53f
4:00 9 11 mph 1019.2mb 63f 53f
3:00 11 13 mph 1019.3mb 63f 54f
2:00 11 13 mph 1019.2mb 62f 54f
1:00 11 13 mph 1019.2mb 62f 55f
12:00 11 13 mph 1019.6mb 62f 55f
mié 12/17 11:00 16
mph
1020.2mb 62f 55f
10:00 13 18 mph 1019.9mb 62f 55f
9:00 13 16 mph 1019.7mb 62f 55f
8:00 13 16 mph 1019.8mb 63f 55f
7:00 13 16 mph 1019.6mb 63f 55f
6:00 11 16 mph 1019.3mb 63f 56f
5:00 11 13 mph 1018.6mb 63f 55f
4:00 7 9 mph 1018.6mb 63f 55f
3:00 4 7 mph 1018.6mb 63f 54f
2:00 7 9 mph 1018.7mb 63f 53f
1:00 11 13 mph 1019.5mb 62f 52f
12:00 11 13 mph 1020.1mb 61f 52f
11:00 11 13 mph 1021mb 61f 52f
10:00 16 18 mph 1021.3mb 61f 52f
9:00 16 20 mph 1021mb 62f 51f
8:00 18 22 mph 1019.9mb 62f 52f
7:00 18 20 mph 1019.1mb 62f 53f
6:00 16 20 mph 1018.6mb 62f 53f
5:00 18 20 mph 1017.6mb 62f 54f
4:00 18 25 mph 1017mb 62f 54f
3:00 18 20 mph 1016.5mb 62f 55f
2:00 18 20 mph 1016.3mb 62f 56f
1:00 13 18 mph 1015.7mb 61f 56f
12:00 13 18 mph 1016.6mb 60f 56f
mar 12/16 11:00 22 29 mph 1016mb 59f 57f
10:00 20 25 mph 1015.7mb 58f 59f
9:00 16 18 mph 1015.9mb 58f 58f
8:00 18 22 mph 1016.1mb 58f 60f
7:00 18 22 mph 1015.6mb 59f 63f
6:00 16 20 mph 1015.5mb 59f 62f
5:00 18 22 mph 1015.7mb 58f 62f